South Franklin, Vermont
Current Conditions -  °F | °C
As of 5:15 AM on Tuesday 21 Oct 2014 (Local Time) from KFSO Reporting Station
Drizzle Drizzle  
Wind Chill:   Ceiling: 4900
Heat Index:   Visibility: 10mi
Dew Point:   Wind: 5mph
Humidity: 81%   Direction: 120°ESE
Pressure: 29.93"   Gusts: NA
Location:  44.8764°N, 72.758°W
Report Text: KFSO 210915Z AUTO 12004KT 10SM DZ OVC049 07/04 A2993 RMK AO2 T00670037
Loading
Personal Weather Stations






























Interactive Weather Map
Tropical Storm Tracking
New forecast layout! Learn more

10-Day Weather Forecast

Advertisements
Track Severe Weather on mobile